Time;durP1;ratioP1;P1;durP2;ratioP2;P2;SDS_P1;SDS_P2;PMS_P1;PMS_P2;Temp;Humidity;BMP_temperature;BMP_pressure;BME280_temperature;BME280_humidity;BME280_pressure;Samples;Min_cycle;Max_cycle;Signal;HPM_P1;HPM_P2
2024/01/07 00:01:14;;;;;;;18.10;15.00;;;;;;;0.50;69.16;99899.18;106170;1257;61267;-70
2024/01/07 00:03:42;;;;;;;17.30;14.80;;;;;;;0.48;69.12;99901.16;106205;1251;61331;-70
2024/01/07 00:06:10;;;;;;;19.40;15.70;;;;;;;0.46;69.08;99899.71;106210;1255;65993;-69
2024/01/07 00:08:37;;;;;;;16.90;13.60;;;;;;;0.43;69.00;99903.11;106168;1253;61349;-71
2024/01/07 00:11:03;;;;;;;15.90;13.20;;;;;;;0.41;68.94;99904.08;106199;1256;63789;-71
2024/01/07 00:13:30;;;;;;;22.90;14.10;;;;;;;0.39;68.93;99914.73;105976;1256;61322;-71
2024/01/07 00:15:57;;;;;;;16.90;14.10;;;;;;;0.37;68.83;99917.92;106094;1253;61273;-70
2024/01/07 00:18:24;;;;;;;18.40;13.90;;;;;;;0.36;68.80;99924.23;106120;1256;65824;-71
2024/01/07 00:20:51;;;;;;;17.60;14.00;;;;;;;0.33;68.70;99932.69;106134;1253;61132;-71
2024/01/07 00:23:18;;;;;;;16.60;13.70;;;;;;;0.27;68.63;99934.84;106214;1253;64012;-67
2024/01/07 00:25:45;;;;;;;15.30;12.50;;;;;;;0.22;68.58;99940.45;106002;1251;61218;-71
2024/01/07 00:28:12;;;;;;;15.50;13.70;;;;;;;0.19;68.51;99946.45;106111;1256;61186;-70
2024/01/07 00:30:39;;;;;;;15.90;13.20;;;;;;;0.14;68.36;99947.70;106272;1255;66033;-71
2024/01/07 00:33:06;;;;;;;15.90;12.80;;;;;;;0.10;68.36;99944.94;106140;1252;61301;-71
2024/01/07 00:35:33;;;;;;;16.90;14.00;;;;;;;0.08;68.29;99946.42;106125;1254;62647;-70
2024/01/07 00:37:59;;;;;;;17.50;14.10;;;;;;;0.05;68.26;99942.06;106188;1253;61226;-70
2024/01/07 00:40:26;;;;;;;18.00;14.60;;;;;;;-0.01;68.16;99944.19;106054;1256;61221;-70
2024/01/07 00:42:54;;;;;;;18.60;15.00;;;;;;;-0.06;68.06;99943.75;106299;1253;65959;-70
2024/01/07 00:45:21;;;;;;;18.10;15.10;;;;;;;-0.09;68.07;99945.23;106119;1252;61323;-70
2024/01/07 00:47:48;;;;;;;16.70;13.70;;;;;;;-0.11;68.13;99940.99;106097;1254;62645;-70
2024/01/07 00:50:16;;;;;;;15.60;13.10;;;;;;;-0.14;68.11;99940.79;106255;1253;61373;-70
2024/01/07 00:52:43;;;;;;;19.50;16.40;;;;;;;-0.21;68.05;99946.09;106091;1257;61337;-69
2024/01/07 00:55:10;;;;;;;18.40;14.80;;;;;;;-0.26;68.04;99943.73;105851;1254;66166;-69
2024/01/07 00:57:37;;;;;;;18.40;14.40;;;;;;;-0.31;68.09;99945.28;106220;1254;61221;-69
2024/01/07 01:00:05;;;;;;;17.70;14.80;;;;;;;-0.33;68.15;99945.02;106152;1254;64015;-70
2024/01/07 01:02:33;;;;;;;19.40;14.00;;;;;;;-0.35;68.22;99947.69;106327;1251;61279;-70
2024/01/07 01:05:00;;;;;;;19.90;14.20;;;;;;;-0.36;68.25;99957.64;106047;1252;61202;-70
2024/01/07 01:07:27;;;;;;;17.60;13.20;;;;;;;-0.38;68.18;99960.81;106231;1254;65869;-71
2024/01/07 01:09:54;;;;;;;20.20;15.70;;;;;;;-0.38;68.23;99967.73;106233;1256;61334;-70
2024/01/07 01:12:21;;;;;;;20.10;16.00;;;;;;;-0.38;68.31;99970.33;105676;1249;64110;-69
2024/01/07 01:14:48;;;;;;;21.50;17.00;;;;;;;-0.37;68.40;99971.86;105780;1251;61310;-70
2024/01/07 01:17:15;;;;;;;19.50;16.70;;;;;;;-0.38;68.36;99969.30;106131;1251;61211;-70
2024/01/07 01:19:41;;;;;;;19.70;16.60;;;;;;;-0.38;68.45;99970.86;106160;1254;64550;-70
2024/01/07 01:22:08;;;;;;;18.60;15.00;;;;;;;-0.39;68.37;99971.92;106289;1251;61267;-69
2024/01/07 01:24:35;;;;;;;15.90;12.60;;;;;;;-0.42;68.29;99972.92;106048;1251;64026;-71
2024/01/07 01:27:02;;;;;;;16.40;12.60;;;;;;;-0.43;68.24;99974.88;106033;1250;61181;-71
2024/01/07 01:29:29;;;;;;;18.10;13.70;;;;;;;-0.44;68.23;99979.60;106012;1250;61327;-71
2024/01/07 01:31:57;;;;;;;16.30;12.70;;;;;;;-0.45;68.24;99976.84;106158;1251;67534;-71
2024/01/07 01:34:24;;;;;;;20.20;13.60;;;;;;;-0.45;68.25;99980.49;106013;1251;61279;-71
2024/01/07 01:36:50;;;;;;;17.60;14.50;;;;;;;-0.47;68.19;99983.69;106422;1249;63776;-70
2024/01/07 01:39:18;;;;;;;17.10;13.70;;;;;;;-0.48;68.17;99989.07;106108;1254;61240;-69
2024/01/07 01:41:45;;;;;;;17.50;13.90;;;;;;;-0.47;68.08;99991.12;106165;1253;61246;-70
2024/01/07 01:44:12;;;;;;;16.40;11.90;;;;;;;-0.46;68.08;99992.64;106159;1250;65955;-70
2024/01/07 01:46:40;;;;;;;15.20;11.60;;;;;;;-0.46;67.99;99994.04;106176;1252;61263;-70
2024/01/07 01:49:07;;;;;;;15.20;10.60;;;;;;;-0.49;67.90;100000.88;106073;1251;63855;-70
2024/01/07 01:51:35;;;;;;;15.10;11.00;;;;;;;-0.52;67.74;100009.30;105839;1251;420616;-70
2024/01/07 01:54:02;;;;;;;15.10;11.90;;;;;;;-0.52;67.77;100008.96;106082;1254;61195;-70
2024/01/07 01:56:29;;;;;;;16.10;12.40;;;;;;;-0.51;67.82;100003.23;106150;1254;65975;-70
2024/01/07 01:58:56;;;;;;;17.60;12.30;;;;;;;-0.50;67.82;100000.75;106232;1251;61356;-71
2024/01/07 02:01:23;;;;;;;18.70;14.40;;;;;;;-0.49;67.75;99995.52;105930;1251;63718;-70
2024/01/07 02:03:53;;;;;;;15.80;12.70;;;;;;;-0.48;67.75;100001.70;106152;1253;61218;-71
2024/01/07 02:06:20;;;;;;;15.40;11.80;;;;;;;-0.48;67.73;100003.26;105918;1251;61259;-69
2024/01/07 02:08:48;;;;;;;14.20;10.40;;;;;;;-0.50;67.67;100010.77;105829;1253;66614;-69
2024/01/07 02:11:16;;;;;;;14.70;12.10;;;;;;;-0.16;66.91;100005.22;106104;1254;61278;-69
2024/01/07 02:13:43;;;;;;;14.40;11.30;;;;;;;-0.33;66.76;99993.29;106123;1251;64092;-71
2024/01/07 02:16:09;;;;;;;15.70;12.10;;;;;;;-0.54;67.01;99993.13;106168;1251;61221;-70
2024/01/07 02:18:38;;;;;;;14.20;12.30;;;;;;;-0.60;67.02;99998.36;106073;1253;61235;-70
2024/01/07 02:21:05;;;;;;;18.00;13.20;;;;;;;-0.64;67.02;100000.79;106107;1253;65794;-70
2024/01/07 02:23:31;;;;;;;15.80;12.40;;;;;;;-0.67;67.06;100003.83;105980;1251;61251;-70
2024/01/07 02:25:58;;;;;;;16.00;12.80;;;;;;;-0.68;67.06;100004.91;106071;1254;62834;-70
2024/01/07 02:28:25;;;;;;;15.80;13.20;;;;;;;-0.68;67.04;100004.73;106064;1251;61145;-69
2024/01/07 02:30:51;;;;;;;14.40;11.10;;;;;;;-0.68;66.97;100004.56;106319;1251;61256;-70
2024/01/07 02:33:18;;;;;;;13.40;9.30;;;;;;;-0.69;66.99;100009.44;106166;1251;65902;-69
2024/01/07 02:35:45;;;;;;;11.20;9.10;;;;;;;-0.71;66.88;100010.39;106113;1251;61280;-70
2024/01/07 02:38:12;;;;;;;11.70;8.80;;;;;;;-0.73;66.82;100012.89;106139;1251;64027;-70
2024/01/07 02:40:39;;;;;;;11.10;8.20;;;;;;;-0.76;66.75;100017.87;106020;1251;61223;-71
2024/01/07 02:43:06;;;;;;;12.60;8.10;;;;;;;-0.80;66.60;100021.45;106136;1251;61276;-70
2024/01/07 02:45:33;;;;;;;11.70;8.30;;;;;;;-0.84;66.56;100028.02;106118;1256;65900;-69
2024/01/07 02:48:00;;;;;;;11.80;8.20;;;;;;;-0.87;66.39;100032.96;106305;1251;61763;-69
2024/01/07 02:50:27;;;;;;;10.70;7.90;;;;;;;-0.91;66.33;100037.24;105938;1251;64443;-71
2024/01/07 02:52:54;;;;;;;11.10;7.50;;;;;;;-0.92;66.29;100037.14;106211;1253;61138;-69
2024/01/07 02:55:21;;;;;;;10.90;8.00;;;;;;;-0.93;66.32;100036.48;106065;1251;61322;-70
2024/01/07 02:57:47;;;;;;;10.50;8.20;;;;;;;-0.94;66.21;100032.39;106093;1254;66006;-70
2024/01/07 03:00:15;;;;;;;12.10;8.70;;;;;;;-0.95;66.19;100032.77;106278;1251;61379;-70
2024/01/07 03:02:42;;;;;;;12.80;8.30;;;;;;;-0.95;66.31;100034.50;105880;1255;64038;-70
2024/01/07 03:05:09;;;;;;;10.70;7.70;;;;;;;-0.95;66.38;100026.52;106190;1251;61154;-70
2024/01/07 03:07:37;;;;;;;11.10;7.30;;;;;;;-0.95;66.29;100023.24;106125;1253;61202;-69
2024/01/07 03:10:06;;;;;;;11.10;7.70;;;;;;;-0.96;66.22;100020.86;105888;1257;65749;-70
2024/01/07 03:12:33;;;;;;;9.90;7.30;;;;;;;-0.98;66.14;100022.14;105976;1250;61349;-70
2024/01/07 03:15:00;;;;;;;11.10;7.60;;;;;;;-0.99;66.13;100024.95;106043;1249;62752;-71
2024/01/07 03:17:27;;;;;;;9.50;7.00;;;;;;;-1.01;66.14;100025.20;106063;1250;61286;-70
2024/01/07 03:19:53;;;;;;;10.50;7.40;;;;;;;-0.99;66.14;100029.10;105952;1251;61340;-69
2024/01/07 03:22:20;;;;;;;10.30;7.10;;;;;;;-0.97;66.09;100027.98;105930;1250;66487;-69
2024/01/07 03:24:47;;;;;;;10.00;6.80;;;;;;;-1.03;65.99;100029.77;105856;1251;61302;-69
2024/01/07 03:27:14;;;;;;;8.60;6.40;;;;;;;-1.05;65.88;100030.89;105956;1254;63870;-69
2024/01/07 03:29:41;;;;;;;10.30;6.50;;;;;;;-1.08;65.76;100026.52;106001;1251;61317;-70
2024/01/07 03:32:08;;;;;;;10.30;6.90;;;;;;;-1.12;65.64;100018.20;106188;1252;61163;-69
2024/01/07 03:34:35;;;;;;;8.00;6.40;;;;;;;-1.14;65.62;100016.90;105796;1254;66357;-69
2024/01/07 03:37:02;;;;;;;9.00;7.00;;;;;;;-1.16;65.56;100017.64;106153;1251;61275;-70
2024/01/07 03:39:33;;;;;;;10.60;6.40;;;;;;;-1.17;65.58;100018.86;106005;1257;63884;-69
2024/01/07 03:42:00;;;;;;;10.40;6.20;;;;;;;-1.20;65.48;100020.36;105930;1250;61294;-71
2024/01/07 03:44:27;;;;;;;8.80;6.70;;;;;;;-1.23;65.45;100019.30;106096;1251;61331;-71
2024/01/07 03:46:54;;;;;;;9.50;6.80;;;;;;;-1.24;65.42;100021.41;106045;1257;64588;-71
2024/01/07 03:49:21;;;;;;;9.20;6.20;;;;;;;-1.25;65.25;100020.38;106232;1254;61250;-71
2024/01/07 03:51:48;;;;;;;9.70;6.80;;;;;;;-1.27;65.29;100031.84;106142;1251;63758;-70
2024/01/07 03:54:14;;;;;;;12.40;7.20;;;;;;;-1.28;65.25;100041.05;106152;1250;61268;-71
2024/01/07 03:56:41;;;;;;;9.00;6.50;;;;;;;-1.31;65.33;100043.76;106234;1254;61225;-70
2024/01/07 03:59:08;;;;;;;10.30;6.50;;;;;;;-1.32;65.37;100042.57;106289;1251;65987;-70
2024/01/07 04:01:34;;;;;;;10.70;6.80;;;;;;;-1.31;65.39;100050.33;106061;1251;61205;-70
2024/01/07 04:04:02;;;;;;;9.50;6.30;;;;;;;-1.31;65.44;100057.91;106131;1253;62540;-71
2024/01/07 04:06:29;;;;;;;7.80;5.90;;;;;;;-1.30;65.34;100057.35;106161;1251;61238;-70
2024/01/07 04:08:56;;;;;;;8.10;5.80;;;;;;;-1.32;65.19;100053.11;106418;1251;61314;-69
2024/01/07 04:11:22;;;;;;;10.50;6.40;;;;;;;-1.34;65.16;100053.20;106092;1251;64566;-71
2024/01/07 04:13:49;;;;;;;8.60;6.00;;;;;;;-1.35;65.22;100057.91;106203;1251;61263;-70
2024/01/07 04:16:18;;;;;;;9.30;6.10;;;;;;;-1.37;65.10;100060.20;106140;1251;63952;-70
2024/01/07 04:18:45;;;;;;;9.80;6.20;;;;;;;-1.37;65.06;100068.66;106103;1254;61321;-70
2024/01/07 04:21:14;;;;;;;10.50;6.20;;;;;;;-1.36;65.08;100072.77;105968;1251;61295;-71
2024/01/07 04:23:41;;;;;;;10.10;6.30;;;;;;;-1.34;65.15;100073.42;106170;1251;66034;-70
2024/01/07 04:26:08;;;;;;;9.80;5.60;;;;;;;-1.33;65.07;100069.94;106224;1251;61225;-70
2024/01/07 04:28:34;;;;;;;9.10;6.40;;;;;;;-1.33;65.04;100072.67;106135;1250;63852;-70
2024/01/07 04:31:01;;;;;;;8.70;5.80;;;;;;;-1.34;64.95;100073.42;106142;1251;61342;-70
2024/01/07 04:33:28;;;;;;;10.40;5.80;;;;;;;-1.35;64.82;100074.83;106068;1250;61289;-71
2024/01/07 04:35:59;;;;;;;8.40;5.30;;;;;;;-1.39;64.73;100076.52;105887;1254;65865;-69
2024/01/07 04:38:25;;;;;;;8.90;6.00;;;;;;;-1.41;64.67;100081.23;106141;1251;61217;-70
2024/01/07 04:40:52;;;;;;;10.30;6.20;;;;;;;-1.42;64.67;100083.00;106136;1250;63717;-68
2024/01/07 04:43:19;;;;;;;13.00;6.20;;;;;;;-1.42;64.64;100079.08;106071;1254;61311;-70
2024/01/07 04:45:46;;;;;;;9.90;5.80;;;;;;;-1.44;64.57;100073.94;106038;1253;61285;-70
2024/01/07 04:48:13;;;;;;;11.50;5.90;;;;;;;-1.47;64.51;100070.38;105950;1250;65898;-70
2024/01/07 04:50:41;;;;;;;8.40;6.10;;;;;;;-1.48;64.47;100063.70;106055;1251;61260;-70
2024/01/07 04:53:08;;;;;;;9.30;5.90;;;;;;;-1.51;64.29;100061.22;105863;1254;64025;-69
2024/01/07 04:55:36;;;;;;;8.50;5.50;;;;;;;-1.54;64.19;100067.55;106068;1251;61276;-70
2024/01/07 04:58:04;;;;;;;10.50;6.20;;;;;;;-1.59;64.25;100072.39;106118;1250;61388;-70
2024/01/07 05:00:31;;;;;;;10.60;5.80;;;;;;;-1.62;64.16;100076.48;106047;1253;65912;-71
2024/01/07 05:02:58;;;;;;;13.20;6.10;;;;;;;-1.64;64.16;100071.35;106237;1251;61334;-70
2024/01/07 05:05:25;;;;;;;9.40;5.80;;;;;;;-1.65;64.28;100071.39;106143;1253;62680;-71
2024/01/07 05:07:52;;;;;;;12.70;5.80;;;;;;;-1.66;64.29;100070.20;106217;1251;61330;-71
2024/01/07 05:10:19;;;;;;;10.50;6.20;;;;;;;-1.66;64.37;100072.77;105998;1251;61346;-70
2024/01/07 05:12:46;;;;;;;9.10;5.90;;;;;;;-1.67;64.35;100069.90;106116;1253;66026;-70
2024/01/07 05:15:12;;;;;;;10.30;6.10;;;;;;;-1.67;64.40;100069.39;106068;1250;61854;-70
2024/01/07 05:17:39;;;;;;;9.10;5.70;;;;;;;-1.69;64.29;100076.36;106089;1251;63805;-70
2024/01/07 05:20:07;;;;;;;9.30;5.80;;;;;;;-1.71;64.22;100081.27;105840;1251;61305;-71
2024/01/07 05:22:34;;;;;;;11.10;5.20;;;;;;;-1.72;64.18;100082.84;106328;1253;61353;-69
2024/01/07 05:25:01;;;;;;;8.90;5.30;;;;;;;-1.71;64.15;100086.10;106114;1251;65945;-70
2024/01/07 05:27:28;;;;;;;8.10;5.30;;;;;;;-1.73;64.16;100081.85;105845;1252;65807;-69
2024/01/07 05:29:55;;;;;;;10.80;5.60;;;;;;;-1.75;64.12;100078.44;105946;1253;64803;-69
2024/01/07 05:32:22;;;;;;;9.00;5.10;;;;;;;-1.77;64.17;100081.26;105856;1250;61167;-69
2024/01/07 05:34:50;;;;;;;8.70;5.40;;;;;;;-1.76;64.12;100082.28;105745;1250;61232;-70
2024/01/07 05:37:17;;;;;;;9.90;6.10;;;;;;;-1.77;64.06;100080.59;106229;1256;66086;-71
2024/01/07 05:39:44;;;;;;;10.00;4.80;;;;;;;-1.82;63.94;100085.41;106011;1251;61259;-71
2024/01/07 05:42:11;;;;;;;8.50;6.10;;;;;;;-1.84;63.89;100097.91;105877;1249;63873;-71
2024/01/07 05:44:40;;;;;;;8.10;5.20;;;;;;;-1.83;63.94;100101.34;105836;1251;61333;-71
2024/01/07 05:47:07;;;;;;;8.40;5.20;;;;;;;-1.83;63.89;100101.17;105883;1251;61901;-70
2024/01/07 05:49:35;;;;;;;8.70;4.90;;;;;;;-1.85;63.73;100097.59;105695;1256;65691;-70
2024/01/07 05:52:03;;;;;;;6.90;4.60;;;;;;;-1.86;63.75;100092.61;105901;1253;61942;-70
2024/01/07 05:54:30;;;;;;;12.20;5.40;;;;;;;-1.87;63.78;100091.80;105847;1251;63864;-70
2024/01/07 05:56:59;;;;;;;10.80;5.00;;;;;;;-1.90;63.67;100097.75;105889;1249;61155;-71
2024/01/07 05:59:27;;;;;;;6.50;4.80;;;;;;;-1.91;63.57;100103.85;106098;1250;61202;-70
2024/01/07 06:01:58;;;;;;;9.10;5.00;;;;;;;-1.93;63.60;100102.52;106113;1250;65940;-70
2024/01/07 06:04:25;;;;;;;8.50;4.50;;;;;;;-1.94;63.55;100106.69;106060;1250;61241;-71
2024/01/07 06:06:53;;;;;;;11.10;5.20;;;;;;;-1.95;63.46;100107.95;106249;1253;63698;-71
2024/01/07 06:09:21;;;;;;;9.10;5.40;;;;;;;-1.98;63.40;100103.20;106091;1253;61266;-70
2024/01/07 06:11:48;;;;;;;7.80;4.70;;;;;;;-2.02;63.17;100098.15;105978;1253;61266;-70
2024/01/07 06:14:15;;;;;;;8.60;4.80;;;;;;;-2.08;63.06;100105.40;105911;1251;66041;-69
2024/01/07 06:16:42;;;;;;;7.40;4.90;;;;;;;-2.11;62.94;100122.95;105798;1256;61167;-69
2024/01/07 06:19:09;;;;;;;7.60;4.70;;;;;;;-2.16;62.82;100130.16;106014;1251;63817;-69
2024/01/07 06:21:37;;;;;;;8.60;4.50;;;;;;;-2.16;62.95;100134.14;105742;1250;61331;-70
2024/01/07 06:24:07;;;;;;;8.70;4.40;;;;;;;-2.14;63.14;100128.89;105918;1250;61357;-70
2024/01/07 06:26:35;;;;;;;7.80;4.80;;;;;;;-2.11;63.10;100118.98;105728;1253;66172;-70
2024/01/07 06:29:02;;;;;;;8.10;5.10;;;;;;;-2.11;63.11;100115.34;106298;1249;61300;-69
2024/01/07 06:31:29;;;;;;;7.90;4.60;;;;;;;-2.09;63.18;100120.63;105874;1251;64000;-70
2024/01/07 06:33:57;;;;;;;9.40;4.70;;;;;;;-2.07;63.19;100128.34;105823;1250;61165;-70
2024/01/07 06:36:25;;;;;;;6.60;4.40;;;;;;;-2.06;63.14;100130.54;106121;1251;61242;-71
2024/01/07 06:38:52;;;;;;;9.60;4.60;;;;;;;-2.07;63.05;100125.55;106082;1250;66039;-69
2024/01/07 06:41:19;;;;;;;8.50;4.50;;;;;;;-2.07;63.04;100122.65;105926;1250;61337;-70
2024/01/07 06:43:46;;;;;;;6.10;4.30;;;;;;;-2.07;62.93;100126.27;105906;1251;63116;-69
2024/01/07 06:46:14;;;;;;;5.50;3.70;;;;;;;-2.07;62.90;100125.39;105848;1253;61343;-71
2024/01/07 06:48:41;;;;;;;7.50;4.40;;;;;;;-2.07;62.92;100123.68;105889;1249;61241;-70
2024/01/07 06:51:15;;;;;;;6.80;4.50;;;;;;;-2.08;62.99;100125.42;105836;1253;65908;-71
2024/01/07 06:53:42;;;;;;;7.80;4.60;;;;;;;-2.08;63.00;100126.45;106031;1251;61320;-71
2024/01/07 06:56:10;;;;;;;10.10;4.70;;;;;;;-2.08;62.92;100124.74;105899;1250;64057;-69
2024/01/07 06:58:37;;;;;;;6.70;4.50;;;;;;;-2.07;63.00;100122.80;105824;1250;61416;-71
2024/01/07 07:01:07;;;;;;;6.60;4.50;;;;;;;-2.06;62.98;100120.02;106024;1253;61183;-69
2024/01/07 07:03:34;;;;;;;11.20;4.80;;;;;;;-2.08;62.80;100116.29;106076;1253;65855;-70
2024/01/07 07:06:01;;;;;;;8.30;4.40;;;;;;;-2.12;62.79;100115.73;105891;1250;61347;-70
2024/01/07 07:08:29;;;;;;;7.60;4.60;;;;;;;-2.13;62.87;100114.20;105958;1253;64008;-72
2024/01/07 07:10:56;;;;;;;6.10;4.10;;;;;;;-2.15;62.88;100114.94;106148;1251;61303;-70
2024/01/07 07:13:23;;;;;;;6.30;4.20;;;;;;;-2.15;63.06;100117.38;106160;1250;61186;-72
2024/01/07 07:15:49;;;;;;;5.90;4.30;;;;;;;-2.14;63.00;100118.89;105752;1253;65921;-72
2024/01/07 07:18:17;;;;;;;5.30;3.60;;;;;;;-2.15;62.85;100120.80;105932;1251;61368;-72
2024/01/07 07:20:44;;;;;;;6.20;4.40;;;;;;;-2.17;62.78;100122.96;106050;1251;64923;-71
2024/01/07 07:23:11;;;;;;;6.90;4.50;;;;;;;-2.19;62.72;100120.11;106233;1250;61308;-71
2024/01/07 07:25:38;;;;;;;7.30;4.00;;;;;;;-2.22;62.65;100122.77;106042;1250;61248;-71
2024/01/07 07:28:07;;;;;;;8.30;4.60;;;;;;;-2.21;62.85;100125.00;105811;1254;66015;-70
2024/01/07 07:30:33;;;;;;;7.90;4.50;;;;;;;-2.21;62.96;100125.35;106167;1255;61290;-70
2024/01/07 07:33:02;;;;;;;6.70;4.40;;;;;;;-2.21;63.05;100130.52;105771;1252;64061;-69
2024/01/07 07:35:29;;;;;;;5.60;4.10;;;;;;;-2.20;63.15;100130.83;106142;1256;61221;-71
2024/01/07 07:37:57;;;;;;;7.80;4.60;;;;;;;-2.20;63.11;100135.30;105743;1256;61244;-69
2024/01/07 07:40:24;;;;;;;10.00;4.90;;;;;;;-2.21;63.14;100137.74;105665;1251;65936;-67
2024/01/07 07:42:51;;;;;;;12.20;4.70;;;;;;;-2.21;63.17;100133.11;105875;1250;61311;-70
2024/01/07 07:45:18;;;;;;;7.40;4.80;;;;;;;-2.21;63.33;100133.27;105874;1253;63755;-70
2024/01/07 07:47:45;;;;;;;8.50;4.40;;;;;;;-2.21;63.28;100132.58;105931;1250;61333;-69
2024/01/07 07:50:13;;;;;;;10.90;5.20;;;;;;;-2.23;63.22;100139.17;105990;1254;61201;-69
2024/01/07 07:52:45;;;;;;;7.10;4.60;;;;;;;-2.26;63.24;100140.15;105963;1254;65999;-70
2024/01/07 07:55:12;;;;;;;8.50;5.00;;;;;;;-2.29;63.33;100142.65;106046;1255;61277;-71
2024/01/07 07:57:39;;;;;;;8.40;4.90;;;;;;;-2.28;63.43;100146.95;106399;1254;63767;-70
2024/01/07 08:00:07;;;;;;;6.70;5.20;;;;;;;-2.29;63.53;100147.83;105778;1251;61299;-71
2024/01/07 08:02:35;;;;;;;6.40;4.20;;;;;;;-2.30;63.55;100149.92;105963;1256;61202;-71
2024/01/07 08:05:02;;;;;;;8.50;5.00;;;;;;;-2.32;63.72;100148.24;105998;1250;64998;-69
2024/01/07 08:07:29;;;;;;;9.10;5.00;;;;;;;-2.33;63.86;100154.83;105875;1250;61236;-72
2024/01/07 08:09:57;;;;;;;7.20;4.80;;;;;;;-2.36;63.93;100160.77;105904;1249;63980;-74
2024/01/07 08:12:24;;;;;;;7.60;5.00;;;;;;;-2.39;63.95;100168.99;105952;1253;61350;-68
2024/01/07 08:14:51;;;;;;;11.80;5.30;;;;;;;-2.39;64.20;100170.70;106181;1251;61253;-69
2024/01/07 08:17:18;;;;;;;8.70;4.80;;;;;;;-2.37;64.37;100167.90;106134;1250;64448;-71
2024/01/07 08:19:45;;;;;;;9.80;5.60;;;;;;;-2.37;64.48;100172.19;105744;1256;61329;-69
2024/01/07 08:22:12;;;;;;;6.80;4.80;;;;;;;-2.34;64.65;100184.00;106150;1250;63968;-70
2024/01/07 08:24:39;;;;;;;6.60;4.60;;;;;;;-2.33;64.53;100188.46;106024;1250;61331;-69
2024/01/07 08:27:06;;;;;;;8.00;5.00;;;;;;;-2.34;64.48;100186.73;105736;1258;61255;-70
2024/01/07 08:29:33;;;;;;;7.50;4.80;;;;;;;-2.33;64.41;100182.92;106092;1250;65798;-71
2024/01/07 08:32:00;;;;;;;7.70;4.80;;;;;;;-2.31;64.43;100173.58;106152;1250;61433;-70
2024/01/07 08:34:28;;;;;;;7.70;4.90;;;;;;;-2.28;64.33;100171.25;106008;1250;63921;-70
2024/01/07 08:36:55;;;;;;;7.30;4.60;;;;;;;-2.28;64.10;100170.37;106103;1250;61230;-72
2024/01/07 08:39:22;;;;;;;7.50;5.00;;;;;;;-2.28;64.19;100174.16;106169;1249;61235;-71
2024/01/07 08:41:50;;;;;;;7.60;4.70;;;;;;;-2.26;64.17;100173.08;106246;1250;66073;-70
2024/01/07 08:44:18;;;;;;;8.60;4.90;;;;;;;-2.25;63.99;100172.88;106016;1250;61283;-71
2024/01/07 08:46:45;;;;;;;8.20;5.30;;;;;;;-2.26;63.92;100170.17;106395;1253;62761;-71
2024/01/07 08:49:13;;;;;;;7.00;4.70;;;;;;;-2.25;63.94;100174.77;106179;1251;61231;-71
2024/01/07 08:51:42;;;;;;;7.70;4.50;;;;;;;-2.23;63.85;100180.05;106289;1250;61106;-72
2024/01/07 08:54:09;;;;;;;8.40;4.80;;;;;;;-2.19;63.86;100190.30;106221;1251;64689;-72
2024/01/07 08:56:36;;;;;;;8.00;4.40;;;;;;;-2.18;63.82;100195.08;106259;1249;61224;-71
2024/01/07 08:59:04;;;;;;;8.40;4.80;;;;;;;-2.18;63.80;100193.53;106192;1250;63797;-72
2024/01/07 09:01:31;;;;;;;7.20;4.40;;;;;;;-2.18;63.72;100192.84;106304;1250;61280;-71
2024/01/07 09:03:58;;;;;;;7.20;5.00;;;;;;;-2.19;63.78;100192.01;106155;1250;61151;-71
2024/01/07 09:06:26;;;;;;;6.70;4.60;;;;;;;-2.18;63.81;100183.53;106296;1251;65676;-71
2024/01/07 09:08:52;;;;;;;7.10;5.00;;;;;;;-2.17;63.88;100172.30;106338;1251;61320;-72
2024/01/07 09:11:19;;;;;;;7.30;5.20;;;;;;;-2.17;63.90;100157.80;105940;1250;63699;-70
2024/01/07 09:13:48;;;;;;;7.80;4.50;;;;;;;-2.15;64.01;100145.66;106286;1250;61307;-70
2024/01/07 09:16:16;;;;;;;12.00;5.60;;;;;;;-2.13;64.02;100128.02;106339;1251;61536;-72
2024/01/07 09:18:46;;;;;;;11.70;5.40;;;;;;;-2.13;64.02;100121.79;106236;1250;66155;-71
2024/01/07 09:21:14;;;;;;;7.10;4.90;;;;;;;-2.09;64.21;100129.27;106451;1250;61953;-72
2024/01/07 09:23:41;;;;;;;10.20;5.50;;;;;;;-2.06;64.21;100136.23;106963;1251;63755;-71
2024/01/07 09:26:08;;;;;;;8.20;5.60;;;;;;;-2.02;64.10;100144.56;109207;1251;59053;-71
2024/01/07 09:28:35;;;;;;;8.90;5.50;;;;;;;-2.04;63.74;100143.42;109274;1250;59160;-71
2024/01/07 09:31:02;;;;;;;7.10;4.70;;;;;;;-2.08;63.68;100138.90;109438;1249;65713;-72
2024/01/07 09:33:29;;;;;;;8.50;5.40;;;;;;;-2.10;63.68;100133.27;109269;1251;59819;-73
2024/01/07 09:35:56;;;;;;;9.70;5.40;;;;;;;-2.13;63.54;100129.73;109182;1253;63840;-74
2024/01/07 09:38:37;;;;;;;10.10;5.60;;;;;;;-2.15;63.48;100129.11;109153;1255;59215;-72
2024/01/07 09:41:04;;;;;;;7.60;5.30;;;;;;;-2.17;63.57;100122.78;109197;1251;59686;-71
2024/01/07 09:43:31;;;;;;;8.80;5.60;;;;;;;-2.18;63.49;100121.77;109341;1250;64768;-70
2024/01/07 09:46:02;;;;;;;7.50;5.20;;;;;;;-2.20;63.34;100122.02;109417;1250;59116;-72
2024/01/07 09:48:30;;;;;;;7.50;5.50;;;;;;;-2.23;63.23;100123.98;109229;1250;63591;-72
2024/01/07 09:50:58;;;;;;;7.50;4.60;;;;;;;-2.23;63.16;100116.40;109314;1250;60160;-72
2024/01/07 09:53:25;;;;;;;7.50;5.60;;;;;;;-2.23;63.09;100115.55;109309;1250;59386;-72
2024/01/07 09:56:02;;;;;;;9.80;5.90;;;;;;;-2.23;63.12;100117.09;109231;1253;65793;-70
2024/01/07 09:58:33;;;;;;;9.40;5.80;;;;;;;-2.22;63.20;100114.33;109274;1250;59410;-71
2024/01/07 10:01:00;;;;;;;9.40;6.40;;;;;;;-2.22;63.07;100105.69;109305;1250;64206;-72
2024/01/07 10:03:27;;;;;;;8.30;5.60;;;;;;;-2.22;63.04;100095.34;109240;1250;60920;-72
2024/01/07 10:05:54;;;;;;;10.30;5.80;;;;;;;-2.23;63.09;100095.21;109318;1249;59177;-71
2024/01/07 10:08:21;;;;;;;9.40;5.70;;;;;;;-2.23;63.23;100096.40;109356;1250;67496;-72
2024/01/07 10:10:51;;;;;;;13.70;6.20;;;;;;;-2.21;63.24;100091.20;109301;1250;59021;-73
2024/01/07 10:13:18;;;;;;;10.10;5.50;;;;;;;-2.22;63.22;100097.23;109238;1249;62738;-72
2024/01/07 10:15:44;;;;;;;10.70;5.90;;;;;;;-2.24;63.01;100098.85;109190;1250;59425;-72
2024/01/07 10:18:12;;;;;;;8.30;6.10;;;;;;;-2.26;62.94;100101.17;109233;1250;60888;-72
2024/01/07 10:20:39;;;;;;;7.50;5.40;;;;;;;-2.29;62.96;100096.45;109129;1253;65867;-72
2024/01/07 10:23:10;;;;;;;9.20;5.90;;;;;;;-2.32;62.97;100090.65;109284;1250;61414;-76
2024/01/07 10:25:37;;;;;;;8.80;5.40;;;;;;;-2.33;62.86;100092.22;109241;1250;64677;-70
2024/01/07 10:28:04;;;;;;;8.50;5.80;;;;;;;-2.34;62.83;100092.44;106631;1251;63297;-71
2024/01/07 10:30:32;;;;;;;8.50;5.90;;;;;;;-2.35;62.77;100091.60;106349;1250;61334;-71
2024/01/07 10:32:59;;;;;;;8.20;5.90;;;;;;;-2.37;62.80;100083.40;105962;1250;66448;-72
2024/01/07 10:35:35;;;;;;;8.70;6.20;;;;;;;-2.40;62.76;100074.20;105965;1257;61144;-70
2024/01/07 10:38:02;;;;;;;8.10;5.70;;;;;;;-2.46;62.53;100073.52;106225;1253;64652;-71
2024/01/07 10:40:30;;;;;;;9.80;5.90;;;;;;;-2.48;62.65;100075.99;106133;1255;61330;-71
2024/01/07 10:42:57;;;;;;;10.90;6.30;;;;;;;-2.48;62.74;100076.68;106213;1251;61212;-71
2024/01/07 10:45:24;;;;;;;10.50;7.10;;;;;;;-2.46;62.85;100076.61;105968;1257;65657;-70
2024/01/07 10:47:55;;;;;;;8.80;6.10;;;;;;;-2.45;62.76;100070.53;106063;1250;61434;-70
2024/01/07 10:50:23;;;;;;;9.20;6.60;;;;;;;-2.48;62.60;100067.54;106162;1256;71247;-70
2024/01/07 10:52:51;;;;;;;9.70;6.30;;;;;;;-2.50;62.50;100069.84;106017;1257;61261;-72
2024/01/07 10:55:18;;;;;;;10.90;6.60;;;;;;;-2.52;62.46;100071.10;107481;1249;61969;-71
2024/01/07 10:57:47;;;;;;;10.10;6.70;;;;;;;-2.53;62.49;100069.76;106186;1255;66102;-71
2024/01/07 11:00:18;;;;;;;10.40;6.30;;;;;;;-2.54;62.52;100069.78;106206;1251;61353;-71
2024/01/07 11:03:06;;;;;;;9.70;6.30;;;;;;;-2.53;62.47;100066.82;106186;1251;63819;-72
2024/01/07 11:05:54;;;;;;;9.40;5.90;;;;;;;-2.52;62.51;100066.10;106365;1253;61232;-72
2024/01/07 11:08:26;;;;;;;9.40;6.50;;;;;;;-2.53;62.36;100060.80;106019;1250;61330;-71
2024/01/07 11:11:18;;;;;;;8.70;6.00;;;;;;;-2.57;62.35;100056.27;106264;1254;65701;-71
2024/01/07 11:13:45;;;;;;;8.50;5.90;;;;;;;-2.61;62.21;100053.27;105967;1258;61238;-72
2024/01/07 11:16:12;;;;;;;10.90;7.00;;;;;;;-2.64;62.20;100055.45;106312;1250;63873;-70